Thunder radar more information blitzortung!


Radar de pluja more information rain snow radar


Visita la nostra xarxa de llocs de meteo:

Template documentation
and downloads

And another site



Wind From: 11-12-2017 11:00 Until: 14:59 warning for: Wind Level: Yellow info button

Pagina Historial Weather Underground text

Diari Resum Novembre 15, 2017 Unitats:  Tant    Imperial   Mètric
« Previous Dia
SegĂźent Dia »
Diari Setmana Mensual Anual Personalitzada
  Maxima: Minima: Media:
Temperatura: 58.3 °F /  14.6 °C 34.7 °F /  1.5 °C 46.8 °F /  8.2 °C
Punt de rosada: 34.2 °F /  1.2 °C 18.7 °F /  -7.4 °C 26.4 °F /  -3.1 °C
Humitat: 59 % 32 % 45 %
Wind Speed: 4.6 mph /  7.4 km/h - 1.4 mph /  2.2 km/h
RĂ fegues de vent: 4.6 mph /  7.4 km/h - -
Vent:- - SE
Pression baro: 30.1 in /  1019.9 hPa 30 in /  1016.8 hPa -
Precipitacions: 0 in /  0.0 mm    
Historical Graphs
 
 
Dades de taula per Novembre 15, 2017
Temps Temperatura Punt de rosada Pression baro Vent Wind Speed RĂ fegues de vent Humitat Rainfall Rate (Hourly)
00:02 39.7 °F /  4.3 °C 19.6 °F /  -6.9 °C 30.1 in /  1019.9 hPa West 1.6 mph /  2.6 km/h 1.6 mph /  2.6 km/h 44 % 0 in /  0.0 mm
00:05 36.1 °F /  2.3 °C 19.2 °F /  -7.1 °C 30.1 in /  1019.9 hPa WNW 1 mph /  1.6 km/h 2 mph /  3.2 km/h 50 % 0 in /  0.0 mm
00:07 39.6 °F /  4.2 °C 19.4 °F /  -7.0 °C 30.1 in /  1019.9 hPa NW 1.4 mph /  2.3 km/h 1.4 mph /  2.3 km/h 44 % 0 in /  0.0 mm
00:12 39.7 °F /  4.3 °C 19.6 °F /  -6.9 °C 30.1 in /  1019.9 hPa WNW 1.4 mph /  2.3 km/h 1.4 mph /  2.3 km/h 44 % 0 in /  0.0 mm
00:15 36 °F /  2.2 °C 19.6 °F /  -6.9 °C 30.1 in /  1018.8 hPa Calm     51 % 0 in /  0.0 mm
00:17 39.7 °F /  4.3 °C 20.1 °F /  -6.6 °C 30.1 in /  1019.9 hPa Calm     45 % 0 in /  0.0 mm
00:22 39.6 °F /  4.2 °C 19.9 °F /  -6.7 °C 30.1 in /  1019.9 hPa Calm     45 % 0 in /  0.0 mm
00:25 35.6 °F /  2.0 °C 19.2 °F /  -7.1 °C 30.1 in /  1019.9 hPa WSW 1 mph /  1.6 km/h 2 mph /  3.2 km/h 51 % 0 in /  0.0 mm
00:27 39.6 °F /  4.2 °C 20.5 °F /  -6.4 °C 30.1 in /  1019.9 hPa Calm     46 % 0 in /  0.0 mm
00:32 39.6 °F /  4.2 °C 20.5 °F /  -6.4 °C 30.1 in /  1019.9 hPa NW 1.2 mph /  1.9 km/h 1.2 mph /  1.9 km/h 46 % 0 in /  0.0 mm
00:35 35.8 °F /  2.1 °C 19.4 °F /  -7.0 °C 30.1 in /  1019.9 hPa Calm   1 mph /  1.6 km/h 51 % 0 in /  0.0 mm
00:37 39.4 °F /  4.1 °C 20.3 °F /  -6.5 °C 30.1 in /  1019.9 hPa Calm     46 % 0 in /  0.0 mm
00:42 39.2 °F /  4.0 °C 20.1 °F /  -6.6 °C 30.1 in /  1019.9 hPa WSW 1.2 mph /  1.9 km/h 1.4 mph /  2.3 km/h 46 % 0 in /  0.0 mm
00:45 35.6 °F /  2.0 °C 19.2 °F /  -7.1 °C 30.1 in /  1018.8 hPa WNW 1 mph /  1.6 km/h 2 mph /  3.2 km/h 51 % 0 in /  0.0 mm
00:47 39 °F /  3.9 °C 19.9 °F /  -6.7 °C 30.1 in /  1019.9 hPa WSW 1.2 mph /  1.9 km/h   46 % 0 in /  0.0 mm
00:52 39 °F /  3.9 °C 20.5 °F /  -6.4 °C 30.1 in /  1019.9 hPa WSW 1.2 mph /  1.9 km/h   47 % 0 in /  0.0 mm
00:55 35.2 °F /  1.8 °C 18.9 °F /  -7.3 °C 30.1 in /  1019.9 hPa Calm   1 mph /  1.6 km/h 51 % 0 in /  0.0 mm
01:05 35.1 °F /  1.7 °C 18.7 °F /  -7.4 °C 30.1 in /  1019.9 hPa Calm   3 mph /  4.8 km/h 51 % 0 in /  0.0 mm
01:15 34.9 °F /  1.6 °C 19 °F /  -7.2 °C 30.1 in /  1018.8 hPa Calm   4 mph /  6.4 km/h 52 % 0 in /  0.0 mm
01:25 34.7 °F /  1.5 °C 18.9 °F /  -7.3 °C 30.1 in /  1019.9 hPa Calm   2 mph /  3.2 km/h 52 % 0 in /  0.0 mm
01:35 34.7 °F /  1.5 °C 18.9 °F /  -7.3 °C 30.1 in /  1019.9 hPa North 1 mph /  1.6 km/h 2 mph /  3.2 km/h 52 % 0 in /  0.0 mm
01:45 35.1 °F /  1.7 °C 19.2 °F /  -7.1 °C 30.1 in /  1019.9 hPa North 1 mph /  1.6 km/h 3 mph /  4.8 km/h 52 % 0 in /  0.0 mm
01:55 35.2 °F /  1.8 °C 19.4 °F /  -7.0 °C 30.1 in /  1019.9 hPa NNE 1 mph /  1.6 km/h 2 mph /  3.2 km/h 52 % 0 in /  0.0 mm
02:05 36 °F /  2.2 °C 19.9 °F /  -6.7 °C 30.1 in /  1019.9 hPa North 2 mph /  3.2 km/h 3 mph /  4.8 km/h 52 % 0 in /  0.0 mm
02:15 36.5 °F /  2.5 °C 20.5 °F /  -6.4 °C 30.1 in /  1019.9 hPa WNW 1 mph /  1.6 km/h 1 mph /  1.6 km/h 52 % 0 in /  0.0 mm
02:25 37.6 °F /  3.1 °C 21.9 °F /  -5.6 °C 30.1 in /  1019.9 hPa Calm   1 mph /  1.6 km/h 53 % 0 in /  0.0 mm
02:35 38.5 °F /  3.6 °C 22.5 °F /  -5.3 °C 30.1 in /  1019.9 hPa Calm   2 mph /  3.2 km/h 52 % 0 in /  0.0 mm
02:45 38.5 °F /  3.6 °C 22.5 °F /  -5.3 °C 30.1 in /  1019.9 hPa West 1 mph /  1.6 km/h 2 mph /  3.2 km/h 52 % 0 in /  0.0 mm
02:55 39 °F /  3.9 °C 22.8 °F /  -5.1 °C 30.1 in /  1019.9 hPa Calm   3 mph /  4.8 km/h 52 % 0 in /  0.0 mm
03:05 40.5 °F /  4.7 °C 24.3 °F /  -4.3 °C 30.1 in /  1019.9 hPa SW 1 mph /  1.6 km/h 2 mph /  3.2 km/h 52 % 0 in /  0.0 mm
03:15 41.9 °F /  5.5 °C 25.5 °F /  -3.6 °C 30.1 in /  1019.9 hPa SSW 1 mph /  1.6 km/h 3 mph /  4.8 km/h 52 % 0 in /  0.0 mm
03:25 42.1 °F /  5.6 °C 25.2 °F /  -3.8 °C 30.1 in /  1019.9 hPa NE 1 mph /  1.6 km/h 2 mph /  3.2 km/h 51 % 0 in /  0.0 mm
03:35 42.8 °F /  6.0 °C 25.9 °F /  -3.4 °C 30.1 in /  1019.9 hPa NE 1 mph /  1.6 km/h 3 mph /  4.8 km/h 51 % 0 in /  0.0 mm
03:45 43.2 °F /  6.2 °C 26.2 °F /  -3.2 °C 30.1 in /  1019.9 hPa NE 1 mph /  1.6 km/h 4 mph /  6.4 km/h 51 % 0 in /  0.0 mm
09:51 43.7 °F /  6.5 °C 26.8 °F /  -2.9 °C 30.1 in /  1019.9 hPa ENE 2.6 mph /  4.2 km/h 2.6 mph /  4.2 km/h 51 % 0 in /  0.0 mm
09:52 43.7 °F /  6.5 °C 26.8 °F /  -2.9 °C 30.1 in /  1019.9 hPa ENE 3.1 mph /  5.0 km/h 3.1 mph /  5.0 km/h 51 % 0 in /  0.0 mm
09:53 43.7 °F /  6.5 °C 26.8 °F /  -2.9 °C 30.1 in /  1019.9 hPa NE 4.6 mph /  7.4 km/h 4.6 mph /  7.4 km/h 51 % 0 in /  0.0 mm
09:58 43.5 °F /  6.4 °C 26.6 °F /  -3.0 °C 30.1 in /  1019.9 hPa WNW 3.3 mph /  5.3 km/h 3.3 mph /  5.3 km/h 51 % 0 in /  0.0 mm
10:03 44.1 °F /  6.7 °C 26.6 °F /  -3.0 °C 30.1 in /  1019.9 hPa NNE 3.8 mph /  6.1 km/h 3.8 mph /  6.1 km/h 50 % 0 in /  0.0 mm
10:04 44.2 °F /  6.8 °C 26.8 °F /  -2.9 °C 30.1 in /  1019.9 hPa NNE 3.5 mph /  5.6 km/h 3.5 mph /  5.6 km/h 50 % 0 in /  0.0 mm
10:09 44.6 °F /  7.0 °C 27.1 °F /  -2.7 °C 30.1 in /  1019.9 hPa NE 2.6 mph /  4.2 km/h 2.6 mph /  4.2 km/h 50 % 0 in /  0.0 mm
10:14 44.4 °F /  6.9 °C 27 °F /  -2.8 °C 30.1 in /  1019.9 hPa NNE 2.3 mph /  3.7 km/h 2.3 mph /  3.7 km/h 50 % 0 in /  0.0 mm
10:19 44.8 °F /  7.1 °C 27.3 °F /  -2.6 °C 30.1 in /  1019.9 hPa NNE 2.4 mph /  3.9 km/h 2.4 mph /  3.9 km/h 50 % 0 in /  0.0 mm
10:24 45.3 °F /  7.4 °C 27.9 °F /  -2.3 °C 30.1 in /  1019.9 hPa NNE 2.3 mph /  3.7 km/h 2.4 mph /  3.9 km/h 50 % 0 in /  0.0 mm
10:29 45.7 °F /  7.6 °C 28 °F /  -2.2 °C 30.1 in /  1019.9 hPa NE 3.5 mph /  5.6 km/h 3.5 mph /  5.6 km/h 50 % 0 in /  0.0 mm
10:34 46.2 °F /  7.9 °C 28.6 °F /  -1.9 °C 30.1 in /  1019.9 hPa ENE 2.2 mph /  3.5 km/h   50 % 0 in /  0.0 mm
10:39 46.6 °F /  8.1 °C 28.9 °F /  -1.7 °C 30.1 in /  1019.9 hPa NE 2.3 mph /  3.7 km/h 2.3 mph /  3.7 km/h 50 % 0 in /  0.0 mm
10:44 47.3 °F /  8.5 °C 29.7 °F /  -1.3 °C 30.1 in /  1019.9 hPa NNE 2.4 mph /  3.9 km/h 2.4 mph /  3.9 km/h 50 % 0 in /  0.0 mm
10:47 47.1 °F /  8.4 °C 29.5 °F /  -1.4 °C 30.1 in /  1019.9 hPa WSW 2.4 mph /  3.9 km/h 2.4 mph /  3.9 km/h 50 % 0 in /  0.0 mm
10:52 47.3 °F /  8.5 °C 29.1 °F /  -1.6 °C 30.1 in /  1019.9 hPa NNE 3.5 mph /  5.6 km/h 3.5 mph /  5.6 km/h 49 % 0 in /  0.0 mm
10:57 47.1 °F /  8.4 °C 28.9 °F /  -1.7 °C 30.1 in /  1019.9 hPa ENE 3.5 mph /  5.6 km/h 3.5 mph /  5.6 km/h 49 % 0 in /  0.0 mm
11:02 46.9 °F /  8.3 °C 28.8 °F /  -1.8 °C 30.1 in /  1019.9 hPa NW 2.4 mph /  3.9 km/h 2.4 mph /  3.9 km/h 49 % 0 in /  0.0 mm
11:07 47.7 °F /  8.7 °C 29.5 °F /  -1.4 °C 30.1 in /  1019.9 hPa NNE 3.5 mph /  5.6 km/h 3.5 mph /  5.6 km/h 49 % 0 in /  0.0 mm
11:12 47.5 °F /  8.6 °C 28.8 °F /  -1.8 °C 30.1 in /  1019.9 hPa ENE 4.6 mph /  7.4 km/h 4.6 mph /  7.4 km/h 48 % 0 in /  0.0 mm
11:17 47.8 °F /  8.8 °C 29.7 °F /  -1.3 °C 30.1 in /  1019.9 hPa East 3.5 mph /  5.6 km/h 3.5 mph /  5.6 km/h 49 % 0 in /  0.0 mm
11:22 48.6 °F /  9.2 °C 30.2 °F /  -1.0 °C 30.1 in /  1018.8 hPa North 2.3 mph /  3.7 km/h   49 % 0 in /  0.0 mm
11:27 48.7 °F /  9.3 °C 29.8 °F /  -1.2 °C 30.1 in /  1018.8 hPa NE 4.6 mph /  7.4 km/h 4.6 mph /  7.4 km/h 48 % 0 in /  0.0 mm
11:32 49.1 °F /  9.5 °C 30.2 °F /  -1.0 °C 30.1 in /  1018.8 hPa NE 3.6 mph /  5.8 km/h 3.6 mph /  5.8 km/h 48 % 0 in /  0.0 mm
11:35 55 °F /  12.8 °C 27.1 °F /  -2.7 °C 30 in /  1016.8 hPa South 1 mph /  1.6 km/h 2 mph /  3.2 km/h 34 % 0 in /  0.0 mm
11:37 49.3 °F /  9.6 °C 30.4 °F /  -0.9 °C 30.1 in /  1019.9 hPa ENE 2.4 mph /  3.9 km/h 2.4 mph /  3.9 km/h 48 % 0 in /  0.0 mm
11:42 49.5 °F /  9.7 °C 30.6 °F /  -0.8 °C 30.1 in /  1019.9 hPa ENE 3.5 mph /  5.6 km/h 3.5 mph /  5.6 km/h 48 % 0 in /  0.0 mm
11:45 54.5 °F /  12.5 °C 26.1 °F /  -3.3 °C 30.1 in /  1017.8 hPa Calm   2 mph /  3.2 km/h 33 % 0 in /  0.0 mm
11:47 49.6 °F /  9.8 °C 30.7 °F /  -0.7 °C 30.1 in /  1019.9 hPa East 4.6 mph /  7.4 km/h 4.6 mph /  7.4 km/h 48 % 0 in /  0.0 mm
11:52 49.8 °F /  9.9 °C 30.4 °F /  -0.9 °C 30.1 in /  1018.8 hPa ESE 3.5 mph /  5.6 km/h 3.5 mph /  5.6 km/h 47 % 0 in /  0.0 mm
11:55 53.8 °F /  12.1 °C 26.1 °F /  -3.3 °C 30.1 in /  1017.8 hPa Calm   1 mph /  1.6 km/h 34 % 0 in /  0.0 mm
11:57 50.2 °F /  10.1 °C 30.7 °F /  -0.7 °C 30.1 in /  1018.8 hPa NE 4.6 mph /  7.4 km/h 4.6 mph /  7.4 km/h 47 % 0 in /  0.0 mm
12:02 50.4 °F /  10.2 °C 30.9 °F /  -0.6 °C 30.1 in /  1018.8 hPa NNE 3.5 mph /  5.6 km/h 3.5 mph /  5.6 km/h 47 % 0 in /  0.0 mm
12:05 53.1 °F /  11.7 °C 25.3 °F /  -3.7 °C 30.1 in /  1017.8 hPa WSW 1 mph /  1.6 km/h 1 mph /  1.6 km/h 34 % 0 in /  0.0 mm
12:07 50.5 °F /  10.3 °C 30.9 °F /  -0.6 °C 30.1 in /  1019.9 hPa North 3.8 mph /  6.1 km/h 3.8 mph /  6.1 km/h 47 % 0 in /  0.0 mm
12:12 51.1 °F /  10.6 °C 31.5 °F /  -0.3 °C 30.1 in /  1019.9 hPa WNW 2.3 mph /  3.7 km/h 2.3 mph /  3.7 km/h 47 % 0 in /  0.0 mm
12:17 51.4 °F /  10.8 °C 31.3 °F /  -0.4 °C 30.1 in /  1019.9 hPa East 2.3 mph /  3.7 km/h 2.3 mph /  3.7 km/h 46 % 0 in /  0.0 mm
12:22 51.6 °F /  10.9 °C 32 °F /  0.0 °C 30.1 in /  1018.8 hPa NNE 2.3 mph /  3.7 km/h 2.3 mph /  3.7 km/h 47 % 0 in /  0.0 mm
12:27 52.2 °F /  11.2 °C 32 °F /  0.0 °C 30.1 in /  1018.8 hPa NNW 2.3 mph /  3.7 km/h 2.3 mph /  3.7 km/h 46 % 0 in /  0.0 mm
12:32 52.7 °F /  11.5 °C 32.5 °F /  0.3 °C 30.1 in /  1018.8 hPa ENE 2.6 mph /  4.2 km/h 2.6 mph /  4.2 km/h 46 % 0 in /  0.0 mm
12:37 52.2 °F /  11.2 °C 31.5 °F /  -0.3 °C 30.1 in /  1018.8 hPa ESE 2.3 mph /  3.7 km/h 2.3 mph /  3.7 km/h 45 % 0 in /  0.0 mm
12:47 53.1 °F /  11.7 °C 32.7 °F /  0.4 °C 30.1 in /  1018.8 hPa NE 3.5 mph /  5.6 km/h 3.5 mph /  5.6 km/h 46 % 0 in /  0.0 mm
12:52 53.1 °F /  11.7 °C 32.4 °F /  0.2 °C 30.1 in /  1018.8 hPa SSE 2.6 mph /  4.2 km/h 2.6 mph /  4.2 km/h 45 % 0 in /  0.0 mm
12:57 53.6 °F /  12.0 °C 32.7 °F /  0.4 °C 30.1 in /  1018.8 hPa NW 2.3 mph /  3.7 km/h 2.3 mph /  3.7 km/h 45 % 0 in /  0.0 mm
13:02 54.1 °F /  12.3 °C 33.3 °F /  0.7 °C 30.1 in /  1018.8 hPa NNW 1.4 mph /  2.3 km/h   45 % 0 in /  0.0 mm
13:07 54 °F /  12.2 °C 33.1 °F /  0.6 °C 30.1 in /  1017.8 hPa ENE 2.6 mph /  4.2 km/h 2.6 mph /  4.2 km/h 45 % 0 in /  0.0 mm
13:12 54.1 °F /  12.3 °C 32.7 °F /  0.4 °C 30.1 in /  1017.8 hPa NE 2.3 mph /  3.7 km/h 2.3 mph /  3.7 km/h 44 % 0 in /  0.0 mm
13:17 54.5 °F /  12.5 °C 33.1 °F /  0.6 °C 30.1 in /  1017.8 hPa NNE 2.4 mph /  3.9 km/h 2.4 mph /  3.9 km/h 44 % 0 in /  0.0 mm
13:22 54.9 °F /  12.7 °C 33.3 °F /  0.7 °C 30.1 in /  1017.8 hPa ENE 2.4 mph /  3.9 km/h 2.4 mph /  3.9 km/h 44 % 0 in /  0.0 mm
13:32 55.4 °F /  13.0 °C 33.8 °F /  1.0 °C 30.1 in /  1017.8 hPa East 2.3 mph /  3.7 km/h 2.3 mph /  3.7 km/h 44 % 0 in /  0.0 mm
13:37 55.8 °F /  13.2 °C 34.2 °F /  1.2 °C 30.1 in /  1017.8 hPa ENE 2.3 mph /  3.7 km/h 2.3 mph /  3.7 km/h 44 % 0 in /  0.0 mm
13:42 55.4 °F /  13.0 °C 33.3 °F /  0.7 °C 30.1 in /  1017.8 hPa East 2.4 mph /  3.9 km/h 2.4 mph /  3.9 km/h 43 % 0 in /  0.0 mm
13:47 55.4 °F /  13.0 °C 33.3 °F /  0.7 °C 30.1 in /  1017.8 hPa East 2.4 mph /  3.9 km/h 2.4 mph /  3.9 km/h 43 % 0 in /  0.0 mm
13:52 55.4 °F /  13.0 °C 33.3 °F /  0.7 °C 30.1 in /  1017.8 hPa NE 2.4 mph /  3.9 km/h 2.6 mph /  4.2 km/h 43 % 0 in /  0.0 mm
13:57 55.8 °F /  13.2 °C 33.6 °F /  0.9 °C 30.1 in /  1017.8 hPa ENE 2.3 mph /  3.7 km/h 2.3 mph /  3.7 km/h 43 % 0 in /  0.0 mm
14:02 55.9 °F /  13.3 °C 33.6 °F /  0.9 °C 30.1 in /  1017.8 hPa NE 2.4 mph /  3.9 km/h 2.4 mph /  3.9 km/h 43 % 0 in /  0.0 mm
14:07 56.1 °F /  13.4 °C 33.3 °F /  0.7 °C 30.1 in /  1017.8 hPa ENE 2.3 mph /  3.7 km/h 2.3 mph /  3.7 km/h 42 % 0 in /  0.0 mm
14:12 55.9 °F /  13.3 °C 32.5 °F /  0.3 °C 30.1 in /  1017.8 hPa SE 3.6 mph /  5.8 km/h 3.6 mph /  5.8 km/h 41 % 0 in /  0.0 mm
14:17 56.3 °F /  13.5 °C 32.9 °F /  0.5 °C 30.1 in /  1017.8 hPa East 3.5 mph /  5.6 km/h 3.5 mph /  5.6 km/h 41 % 0 in /  0.0 mm
14:22 56.3 °F /  13.5 °C 32.4 °F /  0.2 °C 30.1 in /  1017.8 hPa ENE 3.5 mph /  5.6 km/h 3.5 mph /  5.6 km/h 40 % 0 in /  0.0 mm
14:27 56.3 °F /  13.5 °C 32.4 °F /  0.2 °C 30.1 in /  1017.8 hPa ESE 2.3 mph /  3.7 km/h 2.3 mph /  3.7 km/h 40 % 0 in /  0.0 mm
14:32 56.7 °F /  13.7 °C 32 °F /  0.0 °C 30.1 in /  1017.8 hPa ESE 3.5 mph /  5.6 km/h 3.5 mph /  5.6 km/h 39 % 0 in /  0.0 mm
14:37 56.8 °F /  13.8 °C 32.2 °F /  0.1 °C 30.1 in /  1017.8 hPa NNE 1.2 mph /  1.9 km/h   39 % 0 in /  0.0 mm
14:42 57.2 °F /  14.0 °C 32.4 °F /  0.2 °C 30.1 in /  1017.8 hPa NNW 1.2 mph /  1.9 km/h 1.2 mph /  1.9 km/h 39 % 0 in /  0.0 mm
14:47 57.2 °F /  14.0 °C 31.1 °F /  -0.5 °C 30.1 in /  1017.8 hPa ESE 3.5 mph /  5.6 km/h 3.5 mph /  5.6 km/h 37 % 0 in /  0.0 mm
14:52 57 °F /  13.9 °C 30.4 °F /  -0.9 °C 30 in /  1016.8 hPa ESE 3.5 mph /  5.6 km/h 3.5 mph /  5.6 km/h 36 % 0 in /  0.0 mm
14:57 57.2 °F /  14.0 °C 30.6 °F /  -0.8 °C 30 in /  1016.8 hPa NNE 2.3 mph /  3.7 km/h 2.3 mph /  3.7 km/h 36 % 0 in /  0.0 mm
15:02 57.4 °F /  14.1 °C 30.6 °F /  -0.8 °C 30 in /  1016.8 hPa NNE 1.6 mph /  2.6 km/h 1.6 mph /  2.6 km/h 36 % 0 in /  0.0 mm
15:07 57.6 °F /  14.2 °C 30.7 °F /  -0.7 °C 30 in /  1016.8 hPa East 2.3 mph /  3.7 km/h 2.3 mph /  3.7 km/h 36 % 0 in /  0.0 mm
15:12 57.6 °F /  14.2 °C 30.7 °F /  -0.7 °C 30 in /  1016.8 hPa ENE 2.3 mph /  3.7 km/h 2.3 mph /  3.7 km/h 36 % 0 in /  0.0 mm
15:17 57.9 °F /  14.4 °C 31.1 °F /  -0.5 °C 30 in /  1016.8 hPa ENE 1.2 mph /  1.9 km/h 1.2 mph /  1.9 km/h 36 % 0 in /  0.0 mm
15:22 58.1 °F /  14.5 °C 31.3 °F /  -0.4 °C 30 in /  1016.8 hPa NNE 1.2 mph /  1.9 km/h   36 % 0 in /  0.0 mm
15:27 57.9 °F /  14.4 °C 29.7 °F /  -1.3 °C 30 in /  1016.8 hPa South 3.5 mph /  5.6 km/h 3.5 mph /  5.6 km/h 34 % 0 in /  0.0 mm
15:32 57.9 °F /  14.4 °C 29.7 °F /  -1.3 °C 30 in /  1016.8 hPa ENE 2.6 mph /  4.2 km/h 2.6 mph /  4.2 km/h 34 % 0 in /  0.0 mm
15:37 57.9 °F /  14.4 °C 29.7 °F /  -1.3 °C 30.1 in /  1017.8 hPa East 3.5 mph /  5.6 km/h 3.5 mph /  5.6 km/h 34 % 0 in /  0.0 mm
15:42 58.1 °F /  14.5 °C 29.8 °F /  -1.2 °C 30.1 in /  1017.8 hPa NNE 1.2 mph /  1.9 km/h 1.2 mph /  1.9 km/h 34 % 0 in /  0.0 mm
15:47 58.3 °F /  14.6 °C 30 °F /  -1.1 °C 30.1 in /  1017.8 hPa ENE 2.3 mph /  3.7 km/h   34 % 0 in /  0.0 mm
15:52 58.1 °F /  14.5 °C 29.1 °F /  -1.6 °C 30 in /  1016.8 hPa ENE 1.2 mph /  1.9 km/h   33 % 0 in /  0.0 mm
15:57 58.1 °F /  14.5 °C 29.1 °F /  -1.6 °C 30 in /  1016.8 hPa ENE 2.3 mph /  3.7 km/h 2.3 mph /  3.7 km/h 33 % 0 in /  0.0 mm
16:02 57.9 °F /  14.4 °C 28.9 °F /  -1.7 °C 30 in /  1016.8 hPa East 2.3 mph /  3.7 km/h 2.3 mph /  3.7 km/h 33 % 0 in /  0.0 mm
16:07 58.1 °F /  14.5 °C 28.4 °F /  -2.0 °C 30 in /  1016.8 hPa East 1.2 mph /  1.9 km/h 1.4 mph /  2.3 km/h 32 % 0 in /  0.0 mm
16:12 58.1 °F /  14.5 °C 29.1 °F /  -1.6 °C 30 in /  1016.8 hPa ENE 2.3 mph /  3.7 km/h 2.3 mph /  3.7 km/h 33 % 0 in /  0.0 mm
16:17 58.1 °F /  14.5 °C 29.1 °F /  -1.6 °C 30 in /  1016.8 hPa East 2.3 mph /  3.7 km/h 2.3 mph /  3.7 km/h 33 % 0 in /  0.0 mm
16:22 58.3 °F /  14.6 °C 28.6 °F /  -1.9 °C 30 in /  1016.8 hPa South 2.3 mph /  3.7 km/h 2.3 mph /  3.7 km/h 32 % 0 in /  0.0 mm
16:27 58.3 °F /  14.6 °C 28.6 °F /  -1.9 °C 30 in /  1016.8 hPa SE 2.3 mph /  3.7 km/h   32 % 0 in /  0.0 mm
16:32 57.9 °F /  14.4 °C 28.2 °F /  -2.1 °C 30 in /  1016.8 hPa East 3.5 mph /  5.6 km/h 3.5 mph /  5.6 km/h 32 % 0 in /  0.0 mm
16:37 57.9 °F /  14.4 °C 28.2 °F /  -2.1 °C 30 in /  1016.8 hPa Calm     32 % 0 in /  0.0 mm
16:42 57.7 °F /  14.3 °C 28 °F /  -2.2 °C 30 in /  1016.8 hPa ESE 2.3 mph /  3.7 km/h 2.3 mph /  3.7 km/h 32 % 0 in /  0.0 mm
16:47 57.7 °F /  14.3 °C 28 °F /  -2.2 °C 30 in /  1016.8 hPa East 2.3 mph /  3.7 km/h 2.3 mph /  3.7 km/h 32 % 0 in /  0.0 mm
16:52 57.4 °F /  14.1 °C 27.7 °F /  -2.4 °C 30 in /  1016.8 hPa East 2.3 mph /  3.7 km/h 2.3 mph /  3.7 km/h 32 % 0 in /  0.0 mm
16:57 57.2 °F /  14.0 °C 27.7 °F /  -2.4 °C 30 in /  1016.8 hPa ESE 2.3 mph /  3.7 km/h 2.3 mph /  3.7 km/h 32 % 0 in /  0.0 mm
17:02 57 °F /  13.9 °C 27.3 °F /  -2.6 °C 30 in /  1016.8 hPa ESE 1.2 mph /  1.9 km/h   32 % 0 in /  0.0 mm
17:07 56.8 °F /  13.8 °C 28 °F /  -2.2 °C 30 in /  1016.8 hPa Calm     33 % 0 in /  0.0 mm
17:12 56.5 °F /  13.6 °C 27.7 °F /  -2.4 °C 30 in /  1016.8 hPa Calm     33 % 0 in /  0.0 mm
17:17 56.1 °F /  13.4 °C 27.3 °F /  -2.6 °C 30 in /  1016.8 hPa Calm     33 % 0 in /  0.0 mm
18:08 52.7 °F /  11.5 °C 25.2 °F /  -3.8 °C 30.1 in /  1017.8 hPa WSW 1.2 mph /  1.9 km/h 1.2 mph /  1.9 km/h 34 % 0 in /  0.0 mm
18:13 52.3 °F /  11.3 °C 24.8 °F /  -4.0 °C 30.1 in /  1017.8 hPa NNE 1.2 mph /  1.9 km/h 1.2 mph /  1.9 km/h 34 % 0 in /  0.0 mm
18:18 52.3 °F /  11.3 °C 24.8 °F /  -4.0 °C 30.1 in /  1017.8 hPa NNE 1.2 mph /  1.9 km/h   34 % 0 in /  0.0 mm
18:23 52 °F /  11.1 °C 24.4 °F /  -4.2 °C 30.1 in /  1017.8 hPa NNE 2.3 mph /  3.7 km/h 2.3 mph /  3.7 km/h 34 % 0 in /  0.0 mm
18:25 41 °F /  5.0 °C 24.6 °F /  -4.1 °C 30.1 in /  1018.8 hPa ESE 1 mph /  1.6 km/h 2 mph /  3.2 km/h 52 % 0 in /  0.0 mm
18:28 51.8 °F /  11.0 °C 25 °F /  -3.9 °C 30.1 in /  1017.8 hPa Calm     35 % 0 in /  0.0 mm
18:33 51.6 °F /  10.9 °C 24.8 °F /  -4.0 °C 30.1 in /  1017.8 hPa NNE 1.2 mph /  1.9 km/h 1.2 mph /  1.9 km/h 35 % 0 in /  0.0 mm
18:35 40.8 °F /  4.9 °C 24.4 °F /  -4.2 °C 30.1 in /  1018.8 hPa Calm   1 mph /  1.6 km/h 52 % 0 in /  0.0 mm
18:38 51.3 °F /  10.7 °C 24.4 °F /  -4.2 °C 30.1 in /  1017.8 hPa Calm     35 % 0 in /  0.0 mm
18:43 50.9 °F /  10.5 °C 24.3 °F /  -4.3 °C 30.1 in /  1017.8 hPa NNE 1.4 mph /  2.3 km/h   35 % 0 in /  0.0 mm
18:45 40.5 °F /  4.7 °C 24.6 °F /  -4.1 °C 30.1 in /  1018.8 hPa Calm     53 % 0 in /  0.0 mm
18:48 50.9 °F /  10.5 °C 24.3 °F /  -4.3 °C 30.1 in /  1017.8 hPa NNE 1.4 mph /  2.3 km/h 1.4 mph /  2.3 km/h 35 % 0 in /  0.0 mm
18:53 50.7 °F /  10.4 °C 24.6 °F /  -4.1 °C 30.1 in /  1017.8 hPa NE 1.4 mph /  2.3 km/h   36 % 0 in /  0.0 mm
18:55 40.3 °F /  4.6 °C 24.4 °F /  -4.2 °C 30.1 in /  1018.8 hPa Calm     53 % 0 in /  0.0 mm
18:58 50.4 °F /  10.2 °C 24.4 °F /  -4.2 °C 30.1 in /  1017.8 hPa NE 1.2 mph /  1.9 km/h 1.2 mph /  1.9 km/h 36 % 0 in /  0.0 mm
19:03 50 °F /  10.0 °C 24.6 °F /  -4.1 °C 30.1 in /  1017.8 hPa NNE 1.2 mph /  1.9 km/h 1.2 mph /  1.9 km/h 37 % 0 in /  0.0 mm
19:05 40.5 °F /  4.7 °C 24.6 °F /  -4.1 °C 30.1 in /  1018.8 hPa SW 1 mph /  1.6 km/h 2 mph /  3.2 km/h 53 % 0 in /  0.0 mm
19:08 49.8 °F /  9.9 °C 24.6 °F /  -4.1 °C 30.1 in /  1017.8 hPa North 1.2 mph /  1.9 km/h   37 % 0 in /  0.0 mm
19:13 49.6 °F /  9.8 °C 24.4 °F /  -4.2 °C 30.1 in /  1017.8 hPa Calm     37 % 0 in /  0.0 mm
19:15 40.5 °F /  4.7 °C 25.2 °F /  -3.8 °C 30.1 in /  1018.8 hPa SW 1 mph /  1.6 km/h 2 mph /  3.2 km/h 54 % 0 in /  0.0 mm
19:18 49.5 °F /  9.7 °C 25 °F /  -3.9 °C 30 in /  1016.8 hPa Calm     38 % 0 in /  0.0 mm
19:19 49.5 °F /  9.7 °C 25 °F /  -3.9 °C 30 in /  1016.8 hPa Calm     38 % 0 in /  0.0 mm
19:24 49.5 °F /  9.7 °C 25 °F /  -3.9 °C 30 in /  1016.8 hPa Calm     38 % 0 in /  0.0 mm
19:25 40.6 °F /  4.8 °C 25.3 °F /  -3.7 °C 30.1 in /  1018.8 hPa Calm   2 mph /  3.2 km/h 54 % 0 in /  0.0 mm
19:29 49.3 °F /  9.6 °C 24.6 °F /  -4.1 °C 30 in /  1016.8 hPa Calm     38 % 0 in /  0.0 mm
19:34 48.9 °F /  9.4 °C 24.4 °F /  -4.2 °C 30 in /  1016.8 hPa Calm     38 % 0 in /  0.0 mm
19:35 40.5 °F /  4.7 °C 25.2 °F /  -3.8 °C 30.1 in /  1018.8 hPa Calm     54 % 0 in /  0.0 mm
19:39 48.6 °F /  9.2 °C 24.6 °F /  -4.1 °C 30 in /  1016.8 hPa Calm     39 % 0 in /  0.0 mm
19:45 40.6 °F /  4.8 °C 25.3 °F /  -3.7 °C 30.1 in /  1018.8 hPa Calm     54 % 0 in /  0.0 mm
19:49 48.6 °F /  9.2 °C 25.3 °F /  -3.7 °C 30.1 in /  1017.8 hPa ENE 1.2 mph /  1.9 km/h 1.2 mph /  1.9 km/h 40 % 0 in /  0.0 mm
19:54 48.2 °F /  9.0 °C 25 °F /  -3.9 °C 30.1 in /  1017.8 hPa Calm     40 % 0 in /  0.0 mm
19:55 40.6 °F /  4.8 °C 25.7 °F /  -3.5 °C 30.1 in /  1018.8 hPa Calm     55 % 0 in /  0.0 mm
19:59 47.8 °F /  8.8 °C 24.6 °F /  -4.1 °C 30.1 in /  1017.8 hPa Calm     40 % 0 in /  0.0 mm
20:04 47.5 °F /  8.6 °C 25 °F /  -3.9 °C 30.1 in /  1017.8 hPa Calm     41 % 0 in /  0.0 mm
20:05 40.3 °F /  4.6 °C 25.3 °F /  -3.7 °C 30.1 in /  1018.8 hPa Calm   1 mph /  1.6 km/h 55 % 0 in /  0.0 mm
20:09 47.3 °F /  8.5 °C 24.8 °F /  -4.0 °C 30.1 in /  1017.8 hPa Calm     41 % 0 in /  0.0 mm
20:14 47.3 °F /  8.5 °C 24.8 °F /  -4.0 °C 30.1 in /  1017.8 hPa Calm     41 % 0 in /  0.0 mm
20:15 40.3 °F /  4.6 °C 25.3 °F /  -3.7 °C 30.1 in /  1018.8 hPa Calm     55 % 0 in /  0.0 mm
20:19 46.9 °F /  8.3 °C 25 °F /  -3.9 °C 30.1 in /  1017.8 hPa Calm     42 % 0 in /  0.0 mm
20:25 40.1 °F /  4.5 °C 25.2 °F /  -3.8 °C 30.1 in /  1018.8 hPa Calm     55 % 0 in /  0.0 mm
20:29 46.2 °F /  7.9 °C 24.4 °F /  -4.2 °C 30.1 in /  1017.8 hPa West 1.2 mph /  1.9 km/h 1.4 mph /  2.3 km/h 42 % 0 in /  0.0 mm
20:34 46 °F /  7.8 °C 24.8 °F /  -4.0 °C 30.1 in /  1018.8 hPa Calm     43 % 0 in /  0.0 mm
20:35 40.1 °F /  4.5 °C 25.2 °F /  -3.8 °C 30.1 in /  1018.8 hPa Calm   2 mph /  3.2 km/h 55 % 0 in /  0.0 mm
20:39 46 °F /  7.8 °C 24.8 °F /  -4.0 °C 30.1 in /  1018.8 hPa Calm     43 % 0 in /  0.0 mm
20:44 45.9 °F /  7.7 °C 24.6 °F /  -4.1 °C 30.1 in /  1018.8 hPa NE 2.3 mph /  3.7 km/h 2.3 mph /  3.7 km/h 43 % 0 in /  0.0 mm
20:45 39.9 °F /  4.4 °C 25.5 °F /  -3.6 °C 30.1 in /  1018.8 hPa Calm   1 mph /  1.6 km/h 56 % 0 in /  0.0 mm
20:49 45.5 °F /  7.5 °C 24.3 °F /  -4.3 °C 30.1 in /  1017.8 hPa NNW 1.2 mph /  1.9 km/h 1.2 mph /  1.9 km/h 43 % 0 in /  0.0 mm
20:54 45.5 °F /  7.5 °C 24.3 °F /  -4.3 °C 30.1 in /  1017.8 hPa NNW 1.2 mph /  1.9 km/h   43 % 0 in /  0.0 mm
20:55 40.3 °F /  4.6 °C 25.3 °F /  -3.7 °C 30.1 in /  1018.8 hPa Calm   2 mph /  3.2 km/h 55 % 0 in /  0.0 mm
20:59 45.5 °F /  7.5 °C 24.8 °F /  -4.0 °C 30.1 in /  1017.8 hPa Calm     44 % 0 in /  0.0 mm
21:04 45.7 °F /  7.6 °C 25 °F /  -3.9 °C 30.1 in /  1017.8 hPa NE 1.2 mph /  1.9 km/h 1.2 mph /  1.9 km/h 44 % 0 in /  0.0 mm
21:05 40.3 °F /  4.6 °C 25.9 °F /  -3.4 °C 30.1 in /  1018.8 hPa Calm     56 % 0 in /  0.0 mm
21:09 45.5 °F /  7.5 °C 24.8 °F /  -4.0 °C 30.1 in /  1017.8 hPa Calm     44 % 0 in /  0.0 mm
21:14 45.1 °F /  7.3 °C 25 °F /  -3.9 °C 30.1 in /  1017.8 hPa NE 1.2 mph /  1.9 km/h 1.4 mph /  2.3 km/h 45 % 0 in /  0.0 mm
21:15 40.1 °F /  4.5 °C 25.5 °F /  -3.6 °C 30.1 in /  1018.8 hPa NNW 1 mph /  1.6 km/h 1 mph /  1.6 km/h 56 % 0 in /  0.0 mm
21:19 44.8 °F /  7.1 °C 24.6 °F /  -4.1 °C 30.1 in /  1018.8 hPa Calm     45 % 0 in /  0.0 mm
21:24 44.6 °F /  7.0 °C 24.4 °F /  -4.2 °C 30.1 in /  1018.8 hPa Calm     45 % 0 in /  0.0 mm
21:25 39.9 °F /  4.4 °C 25.5 °F /  -3.6 °C 30.1 in /  1018.8 hPa Calm     56 % 0 in /  0.0 mm
21:29 44.4 °F /  6.9 °C 24.4 °F /  -4.2 °C 30.1 in /  1018.8 hPa Calm     45 % 0 in /  0.0 mm
21:34 44.1 °F /  6.7 °C 24.6 °F /  -4.1 °C 30.1 in /  1018.8 hPa Calm     46 % 0 in /  0.0 mm
21:35 39.9 °F /  4.4 °C 25.5 °F /  -3.6 °C 30.1 in /  1018.8 hPa Calm     56 % 0 in /  0.0 mm
21:39 43.9 °F /  6.6 °C 24.4 °F /  -4.2 °C 30.1 in /  1018.8 hPa Calm     46 % 0 in /  0.0 mm
21:44 43.9 °F /  6.6 °C 24.4 °F /  -4.2 °C 30.1 in /  1018.8 hPa NNE 1.2 mph /  1.9 km/h 1.2 mph /  1.9 km/h 46 % 0 in /  0.0 mm
21:45 39.9 °F /  4.4 °C 25.5 °F /  -3.6 °C 30.1 in /  1018.8 hPa NNW 1 mph /  1.6 km/h 2 mph /  3.2 km/h 56 % 0 in /  0.0 mm
21:54 43.7 °F /  6.5 °C 24.8 °F /  -4.0 °C 30.1 in /  1018.8 hPa SE 1.4 mph /  2.3 km/h   47 % 0 in /  0.0 mm
21:55 39.7 °F /  4.3 °C 25.3 °F /  -3.7 °C 30.1 in /  1018.8 hPa Calm   2 mph /  3.2 km/h 56 % 0 in /  0.0 mm
21:59 43.7 °F /  6.5 °C 24.8 °F /  -4.0 °C 30.1 in /  1018.8 hPa Calm     47 % 0 in /  0.0 mm
22:04 43.5 °F /  6.4 °C 24.6 °F /  -4.1 °C 30.1 in /  1018.8 hPa SW 2 mph /  3.2 km/h 2 mph /  3.2 km/h 47 % 0 in /  0.0 mm
22:05 39.4 °F /  4.1 °C 25.3 °F /  -3.7 °C 30.1 in /  1018.8 hPa Calm   2 mph /  3.2 km/h 57 % 0 in /  0.0 mm
22:09 43.2 °F /  6.2 °C 24.3 °F /  -4.3 °C 30.1 in /  1018.8 hPa SW 1.4 mph /  2.3 km/h 1.4 mph /  2.3 km/h 47 % 0 in /  0.0 mm
22:14 42.8 °F /  6.0 °C 23.9 °F /  -4.5 °C 30.1 in /  1018.8 hPa SW 2.3 mph /  3.7 km/h 2.3 mph /  3.7 km/h 47 % 0 in /  0.0 mm
22:15 39.4 °F /  4.1 °C 25.3 °F /  -3.7 °C 30.1 in /  1018.8 hPa NW 1 mph /  1.6 km/h 2 mph /  3.2 km/h 57 % 0 in /  0.0 mm
22:19 42.6 °F /  5.9 °C 23.7 °F /  -4.6 °C 30.1 in /  1018.8 hPa WSW 2.3 mph /  3.7 km/h 2.3 mph /  3.7 km/h 47 % 0 in /  0.0 mm
22:24 42.8 °F /  6.0 °C 24.4 °F /  -4.2 °C 30.1 in /  1018.8 hPa WSW 1.6 mph /  2.6 km/h 1.6 mph /  2.6 km/h 48 % 0 in /  0.0 mm
22:25 39 °F /  3.9 °C 25.2 °F /  -3.8 °C 30.1 in /  1018.8 hPa Calm   2 mph /  3.2 km/h 57 % 0 in /  0.0 mm
22:29 42.8 °F /  6.0 °C 24.4 °F /  -4.2 °C 30.1 in /  1018.8 hPa WSW 2.3 mph /  3.7 km/h 2.3 mph /  3.7 km/h 48 % 0 in /  0.0 mm
22:34 42.8 °F /  6.0 °C 24.4 °F /  -4.2 °C 30.1 in /  1018.8 hPa WSW 2.3 mph /  3.7 km/h 2.3 mph /  3.7 km/h 48 % 0 in /  0.0 mm
22:35 38.5 °F /  3.6 °C 25 °F /  -3.9 °C 30.1 in /  1018.8 hPa Calm   1 mph /  1.6 km/h 58 % 0 in /  0.0 mm
22:39 42.6 °F /  5.9 °C 24.8 °F /  -4.0 °C 30.1 in /  1018.8 hPa WSW 1.4 mph /  2.3 km/h   49 % 0 in /  0.0 mm
22:44 42.4 °F /  5.8 °C 24.6 °F /  -4.1 °C 30.1 in /  1018.8 hPa WSW 1.2 mph /  1.9 km/h 1.2 mph /  1.9 km/h 49 % 0 in /  0.0 mm
22:45 38.5 °F /  3.6 °C 24.6 °F /  -4.1 °C 30.1 in /  1018.8 hPa Calm   2 mph /  3.2 km/h 57 % 0 in /  0.0 mm
22:49 42.4 °F /  5.8 °C 24.6 °F /  -4.1 °C 30.1 in /  1018.8 hPa Calm     49 % 0 in /  0.0 mm
22:54 42.3 °F /  5.7 °C 25 °F /  -3.9 °C 30.1 in /  1018.8 hPa Calm     50 % 0 in /  0.0 mm
22:59 42.1 °F /  5.6 °C 24.8 °F /  -4.0 °C 30.1 in /  1018.8 hPa Calm     50 % 0 in /  0.0 mm
23:04 42.3 °F /  5.7 °C 25 °F /  -3.9 °C 30.1 in /  1018.8 hPa Calm     50 % 0 in /  0.0 mm
23:05 38.5 °F /  3.6 °C 25 °F /  -3.9 °C 30.1 in /  1018.8 hPa Calm   1 mph /  1.6 km/h 58 % 0 in /  0.0 mm
23:09 42.1 °F /  5.6 °C 24.8 °F /  -4.0 °C 30.1 in /  1018.8 hPa Calm     50 % 0 in /  0.0 mm
23:14 42.1 °F /  5.6 °C 24.8 °F /  -4.0 °C 30.1 in /  1018.8 hPa Calm     50 % 0 in /  0.0 mm
23:15 38.5 °F /  3.6 °C 25 °F /  -3.9 °C 30.1 in /  1018.8 hPa Calm   1 mph /  1.6 km/h 58 % 0 in /  0.0 mm
23:19 42.1 °F /  5.6 °C 24.8 °F /  -4.0 °C 30.1 in /  1018.8 hPa Calm     50 % 0 in /  0.0 mm
23:24 42.1 °F /  5.6 °C 25.2 °F /  -3.8 °C 30.1 in /  1018.8 hPa Calm     51 % 0 in /  0.0 mm
23:25 38.3 °F /  3.5 °C 25.2 °F /  -3.8 °C 30.1 in /  1018.8 hPa Calm     59 % 0 in /  0.0 mm
23:29 41.9 °F /  5.5 °C 25.2 °F /  -3.8 °C 30.1 in /  1018.8 hPa Calm     51 % 0 in /  0.0 mm
23:34 42.3 °F /  5.7 °C 25.3 °F /  -3.7 °C 30.1 in /  1018.8 hPa Calm     51 % 0 in /  0.0 mm
23:35 38.1 °F /  3.4 °C 25 °F /  -3.9 °C 30.1 in /  1018.8 hPa Calm     59 % 0 in /  0.0 mm
23:39 42.1 °F /  5.6 °C 25.2 °F /  -3.8 °C 30.1 in /  1018.8 hPa WSW 1.4 mph /  2.3 km/h 1.4 mph /  2.3 km/h 51 % 0 in /  0.0 mm
23:44 41.7 °F /  5.4 °C 25.3 °F /  -3.7 °C 30.1 in /  1018.8 hPa ENE 1.2 mph /  1.9 km/h 1.2 mph /  1.9 km/h 52 % 0 in /  0.0 mm
23:45 37.8 °F /  3.2 °C 24.6 °F /  -4.1 °C 30.1 in /  1018.8 hPa Calm     59 % 0 in /  0.0 mm
23:49 41.7 °F /  5.4 °C 25.3 °F /  -3.7 °C 30.1 in /  1018.8 hPa Calm     52 % 0 in /  0.0 mm
23:54 41.5 °F /  5.3 °C 25.2 °F /  -3.8 °C 30.1 in /  1018.8 hPa Calm     52 % 0 in /  0.0 mm
23:55 37.6 °F /  3.1 °C 24.4 °F /  -4.2 °C 30.1 in /  1018.8 hPa NW 1 mph /  1.6 km/h 2 mph /  3.2 km/h 59 % 0 in /  0.0 mm
23:59 41.5 °F /  5.3 °C 25.2 °F /  -3.8 °C 30.1 in /  1018.8 hPa ENE 2.3 mph /  3.7 km/h 2.3 mph /  3.7 km/h 52 % 0 in /  0.0 mm
Meteo Sesrovires
Elogis d' Weather Underground - 3.75 mb

Guio original per  Jim McMurry - jmcmurry@mwt.net Adaptat per a la plantilla per  Wim van der Kuil - Leuven-Template.eu

Trobareu la nostra informacio del temps tambe a:

Weather Underground

AWEKAS